sensor_id;sensor_type;location;lat;lon;timestamp;temperature;humidity
67868;SHT31;54672;46.096;14.470;2023-09-19T00:00:00;18.25;99.99
67868;SHT31;54672;46.096;14.470;2023-09-19T00:02:26;18.26;99.99
67868;SHT31;54672;46.096;14.470;2023-09-19T00:04:52;18.29;99.99
67868;SHT31;54672;46.096;14.470;2023-09-19T00:07:18;18.32;99.99
67868;SHT31;54672;46.096;14.470;2023-09-19T00:09:44;18.29;99.99
67868;SHT31;54672;46.096;14.470;2023-09-19T00:12:09;18.26;99.99
67868;SHT31;54672;46.096;14.470;2023-09-19T00:14:35;18.29;99.99
67868;SHT31;54672;46.096;14.470;2023-09-19T00:17:04;18.29;99.99
67868;SHT31;54672;46.096;14.470;2023-09-19T00:19:34;18.28;99.99
67868;SHT31;54672;46.096;14.470;2023-09-19T00:21:59;18.26;99.99
67868;SHT31;54672;46.096;14.470;2023-09-19T00:24:25;18.25;99.99
67868;SHT31;54672;46.096;14.470;2023-09-19T00:26:53;18.26;99.99
67868;SHT31;54672;46.096;14.470;2023-09-19T00:29:19;18.29;99.99
67868;SHT31;54672;46.096;14.470;2023-09-19T00:31:45;18.23;99.99
67868;SHT31;54672;46.096;14.470;2023-09-19T00:34:10;18.25;99.99
67868;SHT31;54672;46.096;14.470;2023-09-19T00:36:39;18.26;99.99
67868;SHT31;54672;46.096;14.470;2023-09-19T00:39:08;18.25;99.99
67868;SHT31;54672;46.096;14.470;2023-09-19T00:41:33;18.32;99.99
67868;SHT31;54672;46.096;14.470;2023-09-19T00:44:01;18.33;99.99
67868;SHT31;54672;46.096;14.470;2023-09-19T00:46:27;18.34;99.99
67868;SHT31;54672;46.096;14.470;2023-09-19T00:48:53;18.36;99.99
67868;SHT31;54672;46.096;14.470;2023-09-19T00:51:20;18.37;99.99
67868;SHT31;54672;46.096;14.470;2023-09-19T00:53:47;18.37;99.99
67868;SHT31;54672;46.096;14.470;2023-09-19T00:56:14;18.33;99.99
67868;SHT31;54672;46.096;14.470;2023-09-19T00:58:40;18.32;99.99
67868;SHT31;54672;46.096;14.470;2023-09-19T01:01:06;18.32;99.99
67868;SHT31;54672;46.096;14.470;2023-09-19T01:03:36;18.29;99.99
67868;SHT31;54672;46.096;14.470;2023-09-19T01:06:02;18.29;99.99
67868;SHT31;54672;46.096;14.470;2023-09-19T01:08:28;18.25;99.99
67868;SHT31;54672;46.096;14.470;2023-09-19T01:11:11;18.29;99.99
67868;SHT31;54672;46.096;14.470;2023-09-19T01:13:55;18.28;99.99
67868;SHT31;54672;46.096;14.470;2023-09-19T01:30:32;18.32;99.99
67868;SHT31;54672;46.096;14.470;2023-09-19T01:32:59;18.33;99.99
67868;SHT31;54672;46.096;14.470;2023-09-19T01:35:25;18.36;99.99
67868;SHT31;54672;46.096;14.470;2023-09-19T01:37:51;18.37;99.99
67868;SHT31;54672;46.096;14.470;2023-09-19T01:40:19;18.25;99.99
67868;SHT31;54672;46.096;14.470;2023-09-19T01:42:57;18.19;99.99
67868;SHT31;54672;46.096;14.470;2023-09-19T01:45:33;18.16;99.99
67868;SHT31;54672;46.096;14.470;2023-09-19T01:48:23;18.15;99.99
67868;SHT31;54672;46.096;14.470;2023-09-19T01:53:33;18.12;99.99
67868;SHT31;54672;46.096;14.470;2023-09-19T01:56:01;18.16;99.99
67868;SHT31;54672;46.096;14.470;2023-09-19T01:58:48;18.19;99.99
67868;SHT31;54672;46.096;14.470;2023-09-19T02:01:20;18.21;99.99
67868;SHT31;54672;46.096;14.470;2023-09-19T02:03:48;18.12;99.99
67868;SHT31;54672;46.096;14.470;2023-09-19T02:06:15;18.10;99.99
67868;SHT31;54672;46.096;14.470;2023-09-19T02:08:41;18.12;99.99
67868;SHT31;54672;46.096;14.470;2023-09-19T02:11:06;18.06;99.99
67868;SHT31;54672;46.096;14.470;2023-09-19T02:13:32;18.06;99.99
67868;SHT31;54672;46.096;14.470;2023-09-19T02:15:57;18.02;99.99
67868;SHT31;54672;46.096;14.470;2023-09-19T02:18:24;18.02;99.99
67868;SHT31;54672;46.096;14.470;2023-09-19T02:20:49;17.98;99.99
67868;SHT31;54672;46.096;14.470;2023-09-19T02:23:16;17.96;99.99
67868;SHT31;54672;46.096;14.470;2023-09-19T02:25:42;17.99;99.99
67868;SHT31;54672;46.096;14.470;2023-09-19T02:28:09;17.99;99.99
67868;SHT31;54672;46.096;14.470;2023-09-19T02:30:35;17.98;99.99
67868;SHT31;54672;46.096;14.470;2023-09-19T02:33:01;17.96;99.99
67868;SHT31;54672;46.096;14.470;2023-09-19T02:35:27;17.93;99.99
67868;SHT31;54672;46.096;14.470;2023-09-19T02:37:53;17.98;99.99
67868;SHT31;54672;46.096;14.470;2023-09-19T02:40:18;17.96;99.99
67868;SHT31;54672;46.096;14.470;2023-09-19T02:42:45;17.98;99.99
67868;SHT31;54672;46.096;14.470;2023-09-19T02:45:12;17.99;99.99
67868;SHT31;54672;46.096;14.470;2023-09-19T02:47:40;18.02;99.99
67868;SHT31;54672;46.096;14.470;2023-09-19T02:50:05;18.01;99.99
67868;SHT31;54672;46.096;14.470;2023-09-19T02:52:31;17.96;99.99
67868;SHT31;54672;46.096;14.470;2023-09-19T02:54:56;17.99;99.99
67868;SHT31;54672;46.096;14.470;2023-09-19T02:57:22;18.02;99.99
67868;SHT31;54672;46.096;14.470;2023-09-19T02:59:49;18.02;99.99
67868;SHT31;54672;46.096;14.470;2023-09-19T03:02:15;17.99;99.99
67868;SHT31;54672;46.096;14.470;2023-09-19T03:04:41;18.01;99.99
67868;SHT31;54672;46.096;14.470;2023-09-19T03:07:06;18.02;99.99
67868;SHT31;54672;46.096;14.470;2023-09-19T03:09:32;17.99;99.99
67868;SHT31;54672;46.096;14.470;2023-09-19T03:11:57;17.99;99.99
67868;SHT31;54672;46.096;14.470;2023-09-19T03:14:23;17.99;99.99
67868;SHT31;54672;46.096;14.470;2023-09-19T03:16:49;17.99;99.99
67868;SHT31;54672;46.096;14.470;2023-09-19T03:19:14;17.96;99.99
67868;SHT31;54672;46.096;14.470;2023-09-19T03:21:40;17.96;99.99
67868;SHT31;54672;46.096;14.470;2023-09-19T03:24:05;17.96;99.99
67868;SHT31;54672;46.096;14.470;2023-09-19T03:26:31;17.96;99.99
67868;SHT31;54672;46.096;14.470;2023-09-19T03:28:58;17.96;99.99
67868;SHT31;54672;46.096;14.470;2023-09-19T03:31:24;17.93;99.99
67868;SHT31;54672;46.096;14.470;2023-09-19T03:33:49;17.95;99.99
67868;SHT31;54672;46.096;14.470;2023-09-19T03:36:14;17.95;99.99
67868;SHT31;54672;46.096;14.470;2023-09-19T03:38:40;17.92;99.99
67868;SHT31;54672;46.096;14.470;2023-09-19T03:41:05;17.92;99.99
67868;SHT31;54672;46.096;14.470;2023-09-19T03:43:33;17.92;99.99
67868;SHT31;54672;46.096;14.470;2023-09-19T03:46:02;17.89;99.99
67868;SHT31;54672;46.096;14.470;2023-09-19T03:48:30;17.89;99.99
67868;SHT31;54672;46.096;14.470;2023-09-19T03:50:56;17.86;99.99
67868;SHT31;54672;46.096;14.470;2023-09-19T03:53:22;17.82;99.99
67868;SHT31;54672;46.096;14.470;2023-09-19T03:55:48;17.78;99.99
67868;SHT31;54672;46.096;14.470;2023-09-19T03:58:14;17.79;99.99
67868;SHT31;54672;46.096;14.470;2023-09-19T04:00:39;17.79;99.99
67868;SHT31;54672;46.096;14.470;2023-09-19T04:03:05;17.74;99.99
67868;SHT31;54672;46.096;14.470;2023-09-19T04:05:31;17.74;99.99
67868;SHT31;54672;46.096;14.470;2023-09-19T04:07:57;17.72;99.99
67868;SHT31;54672;46.096;14.470;2023-09-19T04:10:23;17.68;99.99
67868;SHT31;54672;46.096;14.470;2023-09-19T04:12:55;17.64;99.99
67868;SHT31;54672;46.096;14.470;2023-09-19T04:15:22;17.60;99.99
67868;SHT31;54672;46.096;14.470;2023-09-19T04:17:51;17.55;99.99
67868;SHT31;54672;46.096;14.470;2023-09-19T04:20:18;17.51;99.99
67868;SHT31;54672;46.096;14.470;2023-09-19T04:22:45;17.40;99.99
67868;SHT31;54672;46.096;14.470;2023-09-19T04:25:11;17.37;99.99
67868;SHT31;54672;46.096;14.470;2023-09-19T04:27:36;17.38;99.18
67868;SHT31;54672;46.096;14.470;2023-09-19T04:30:04;17.35;99.59
67868;SHT31;54672;46.096;14.470;2023-09-19T04:32:35;17.30;99.43
67868;SHT31;54672;46.096;14.470;2023-09-19T04:35:01;17.26;99.83
67868;SHT31;54672;46.096;14.470;2023-09-19T04:37:30;17.27;98.21
67868;SHT31;54672;46.096;14.470;2023-09-19T04:39:56;17.26;98.18
67868;SHT31;54672;46.096;14.470;2023-09-19T04:42:22;17.24;97.16
67868;SHT31;54672;46.096;14.470;2023-09-19T04:44:49;17.20;96.96
67868;SHT31;54672;46.096;14.470;2023-09-19T04:47:15;17.22;97.00
67868;SHT31;54672;46.096;14.470;2023-09-19T04:49:41;17.16;97.43
67868;SHT31;54672;46.096;14.470;2023-09-19T04:52:07;17.09;97.92
67868;SHT31;54672;46.096;14.470;2023-09-19T04:54:32;17.06;97.69
67868;SHT31;54672;46.096;14.470;2023-09-19T04:56:59;17.03;97.87
67868;SHT31;54672;46.096;14.470;2023-09-19T04:59:25;17.00;98.47
67868;SHT31;54672;46.096;14.470;2023-09-19T05:01:50;17.00;98.61
67868;SHT31;54672;46.096;14.470;2023-09-19T05:04:16;16.94;98.83
67868;SHT31;54672;46.096;14.470;2023-09-19T05:06:41;16.97;98.75
67868;SHT31;54672;46.096;14.470;2023-09-19T05:09:07;17.00;98.85
67868;SHT31;54672;46.096;14.470;2023-09-19T05:11:33;17.00;99.97
67868;SHT31;54672;46.096;14.470;2023-09-19T05:13:59;16.97;99.99
67868;SHT31;54672;46.096;14.470;2023-09-19T05:16:29;16.92;99.99
67868;SHT31;54672;46.096;14.470;2023-09-19T05:18:56;16.99;99.99
67868;SHT31;54672;46.096;14.470;2023-09-19T05:21:23;16.94;99.99
67868;SHT31;54672;46.096;14.470;2023-09-19T05:23:51;16.93;99.99
67868;SHT31;54672;46.096;14.470;2023-09-19T05:26:17;16.97;99.99
67868;SHT31;54672;46.096;14.470;2023-09-19T05:28:43;16.92;99.99
67868;SHT31;54672;46.096;14.470;2023-09-19T05:31:08;16.94;99.99
67868;SHT31;54672;46.096;14.470;2023-09-19T05:33:34;17.04;99.27
67868;SHT31;54672;46.096;14.470;2023-09-19T05:35:59;16.96;99.95
67868;SHT31;54672;46.096;14.470;2023-09-19T05:38:25;16.92;99.78
67868;SHT31;54672;46.096;14.470;2023-09-19T05:40:52;16.83;99.93
67868;SHT31;54672;46.096;14.470;2023-09-19T05:43:19;16.83;99.99
67868;SHT31;54672;46.096;14.470;2023-09-19T05:45:44;16.75;99.91
67868;SHT31;54672;46.096;14.470;2023-09-19T05:48:12;16.71;99.90
67868;SHT31;54672;46.096;14.470;2023-09-19T05:50:38;16.69;99.99
67868;SHT31;54672;46.096;14.470;2023-09-19T05:53:04;16.73;99.99
67868;SHT31;54672;46.096;14.470;2023-09-19T05:55:30;16.76;99.99
67868;SHT31;54672;46.096;14.470;2023-09-19T05:57:55;16.79;99.52
67868;SHT31;54672;46.096;14.470;2023-09-19T06:00:22;16.73;99.63
67868;SHT31;54672;46.096;14.470;2023-09-19T06:02:54;16.68;99.99
67868;SHT31;54672;46.096;14.470;2023-09-19T06:05:20;16.62;99.99
67868;SHT31;54672;46.096;14.470;2023-09-19T06:07:46;16.65;99.99
67868;SHT31;54672;46.096;14.470;2023-09-19T06:10:12;16.62;99.99
67868;SHT31;54672;46.096;14.470;2023-09-19T06:12:41;16.62;99.99
67868;SHT31;54672;46.096;14.470;2023-09-19T06:15:09;16.66;99.99
67868;SHT31;54672;46.096;14.470;2023-09-19T06:17:38;16.68;99.99
67868;SHT31;54672;46.096;14.470;2023-09-19T06:20:07;16.73;99.99
67868;SHT31;54672;46.096;14.470;2023-09-19T06:22:39;16.75;99.99
67868;SHT31;54672;46.096;14.470;2023-09-19T06:25:06;16.68;99.99
67868;SHT31;54672;46.096;14.470;2023-09-19T06:27:32;16.63;99.99
67868;SHT31;54672;46.096;14.470;2023-09-19T06:29:58;16.66;99.99
67868;SHT31;54672;46.096;14.470;2023-09-19T06:32:29;16.77;99.99
67868;SHT31;54672;46.096;14.470;2023-09-19T06:34:54;16.85;99.99
67868;SHT31;54672;46.096;14.470;2023-09-19T06:37:21;16.94;99.99
67868;SHT31;54672;46.096;14.470;2023-09-19T06:39:47;17.03;99.99
67868;SHT31;54672;46.096;14.470;2023-09-19T06:42:15;17.06;99.99
67868;SHT31;54672;46.096;14.470;2023-09-19T06:44:42;17.07;99.99
67868;SHT31;54672;46.096;14.470;2023-09-19T06:47:08;17.13;99.99
67868;SHT31;54672;46.096;14.470;2023-09-19T06:49:35;17.04;99.99
67868;SHT31;54672;46.096;14.470;2023-09-19T06:52:00;17.06;99.99
67868;SHT31;54672;46.096;14.470;2023-09-19T06:54:26;17.03;99.99
67868;SHT31;54672;46.096;14.470;2023-09-19T06:56:58;16.99;99.99
67868;SHT31;54672;46.096;14.470;2023-09-19T06:59:24;16.90;99.99
67868;SHT31;54672;46.096;14.470;2023-09-19T07:01:50;16.86;99.99
67868;SHT31;54672;46.096;14.470;2023-09-19T07:04:16;16.73;99.99
67868;SHT31;54672;46.096;14.470;2023-09-19T07:06:42;16.72;99.99
67868;SHT31;54672;46.096;14.470;2023-09-19T07:09:08;16.69;99.99
67868;SHT31;54672;46.096;14.470;2023-09-19T07:11:34;16.63;99.99
67868;SHT31;54672;46.096;14.470;2023-09-19T07:13:59;16.59;99.99
67868;SHT31;54672;46.096;14.470;2023-09-19T07:16:28;16.61;99.99
67868;SHT31;54672;46.096;14.470;2023-09-19T07:18:57;16.59;99.99
67868;SHT31;54672;46.096;14.470;2023-09-19T07:21:23;16.58;99.99
67868;SHT31;54672;46.096;14.470;2023-09-19T07:23:49;16.56;99.99
67868;SHT31;54672;46.096;14.470;2023-09-19T07:26:15;16.59;99.99
67868;SHT31;54672;46.096;14.470;2023-09-19T07:28:41;16.68;99.99
67868;SHT31;54672;46.096;14.470;2023-09-19T07:31:06;16.72;99.99
67868;SHT31;54672;46.096;14.470;2023-09-19T07:33:36;16.75;99.99
67868;SHT31;54672;46.096;14.470;2023-09-19T07:36:02;16.80;99.99
67868;SHT31;54672;46.096;14.470;2023-09-19T07:38:27;16.80;99.75
67868;SHT31;54672;46.096;14.470;2023-09-19T07:40:52;16.83;99.70
67868;SHT31;54672;46.096;14.470;2023-09-19T07:43:18;16.93;99.53
67868;SHT31;54672;46.096;14.470;2023-09-19T07:45:43;16.97;99.01
67868;SHT31;54672;46.096;14.470;2023-09-19T07:48:09;16.97;99.04
67868;SHT31;54672;46.096;14.470;2023-09-19T07:50:39;16.96;99.19
67868;SHT31;54672;46.096;14.470;2023-09-19T07:53:05;16.96;99.54
67868;SHT31;54672;46.096;14.470;2023-09-19T07:55:31;17.00;99.82
67868;SHT31;54672;46.096;14.470;2023-09-19T07:57:59;17.06;99.99
67868;SHT31;54672;46.096;14.470;2023-09-19T08:00:24;17.12;99.99
67868;SHT31;54672;46.096;14.470;2023-09-19T08:02:49;17.13;99.91
67868;SHT31;54672;46.096;14.470;2023-09-19T08:05:17;17.09;99.99
67868;SHT31;54672;46.096;14.470;2023-09-19T08:07:44;17.04;99.99
67868;SHT31;54672;46.096;14.470;2023-09-19T08:10:14;17.06;99.99
67868;SHT31;54672;46.096;14.470;2023-09-19T08:12:41;17.07;99.99
67868;SHT31;54672;46.096;14.470;2023-09-19T08:17:40;17.09;99.99
67868;SHT31;54672;46.096;14.470;2023-09-19T08:20:06;17.14;99.99
67868;SHT31;54672;46.096;14.470;2023-09-19T08:22:32;17.19;99.99
67868;SHT31;54672;46.096;14.470;2023-09-19T08:24:57;17.22;99.99
67868;SHT31;54672;46.096;14.470;2023-09-19T08:27:23;17.30;99.43
67868;SHT31;54672;46.096;14.470;2023-09-19T08:29:52;17.30;99.63
67868;SHT31;54672;46.096;14.470;2023-09-19T08:32:18;17.34;99.96
67868;SHT31;54672;46.096;14.470;2023-09-19T08:34:49;17.41;99.99
67868;SHT31;54672;46.096;14.470;2023-09-19T08:37:14;17.45;99.99
67868;SHT31;54672;46.096;14.470;2023-09-19T08:39:40;17.44;99.77
67868;SHT31;54672;46.096;14.470;2023-09-19T08:42:06;17.45;99.64
67868;SHT31;54672;46.096;14.470;2023-09-19T08:44:36;17.45;99.22
67868;SHT31;54672;46.096;14.470;2023-09-19T08:47:11;17.45;99.19
67868;SHT31;54672;46.096;14.470;2023-09-19T08:49:59;17.45;99.16
67868;SHT31;54672;46.096;14.470;2023-09-19T08:52:32;17.45;98.87
67868;SHT31;54672;46.096;14.470;2023-09-19T08:55:02;17.50;98.35
67868;SHT31;54672;46.096;14.470;2023-09-19T08:57:33;17.55;98.89
67868;SHT31;54672;46.096;14.470;2023-09-19T09:00:01;17.54;98.93
67868;SHT31;54672;46.096;14.470;2023-09-19T09:02:28;17.61;98.43
67868;SHT31;54672;46.096;14.470;2023-09-19T09:04:54;17.71;98.22
67868;SHT31;54672;46.096;14.470;2023-09-19T09:07:20;17.79;98.06
67868;SHT31;54672;46.096;14.470;2023-09-19T09:09:46;18.01;98.22
67868;SHT31;54672;46.096;14.470;2023-09-19T09:12:14;18.03;96.68
67868;SHT31;54672;46.096;14.470;2023-09-19T09:14:44;17.91;96.66
67868;SHT31;54672;46.096;14.470;2023-09-19T09:17:10;17.98;97.11
67868;SHT31;54672;46.096;14.470;2023-09-19T09:19:36;18.03;96.86
67868;SHT31;54672;46.096;14.470;2023-09-19T09:22:06;18.12;96.61
67868;SHT31;54672;46.096;14.470;2023-09-19T09:24:32;18.25;96.25
67868;SHT31;54672;46.096;14.470;2023-09-19T09:27:06;18.37;95.66
67868;SHT31;54672;46.096;14.470;2023-09-19T09:29:47;18.54;94.94
67868;SHT31;54672;46.096;14.470;2023-09-19T09:32:30;18.52;94.45
67868;SHT31;54672;46.096;14.470;2023-09-19T09:35:00;18.49;94.22
67868;SHT31;54672;46.096;14.470;2023-09-19T09:37:26;18.67;93.63
67868;SHT31;54672;46.096;14.470;2023-09-19T09:40:00;18.78;94.32
67868;SHT31;54672;46.096;14.470;2023-09-19T09:42:44;18.94;94.13
67868;SHT31;54672;46.096;14.470;2023-09-19T09:45:19;19.08;93.37
67868;SHT31;54672;46.096;14.470;2023-09-19T09:48:02;19.36;92.78
67868;SHT31;54672;46.096;14.470;2023-09-19T09:50:31;19.51;92.02
67868;SHT31;54672;46.096;14.470;2023-09-19T09:56:06;19.42;91.24
67868;SHT31;54672;46.096;14.470;2023-09-19T09:58:40;19.31;91.13
67868;SHT31;54672;46.096;14.470;2023-09-19T10:01:14;19.19;91.88
67868;SHT31;54672;46.096;14.470;2023-09-19T10:03:42;19.16;92.56
67868;SHT31;54672;46.096;14.470;2023-09-19T10:06:14;19.16;92.13
67868;SHT31;54672;46.096;14.470;2023-09-19T10:09:07;19.24;91.90
67868;SHT31;54672;46.096;14.470;2023-09-19T10:11:44;19.35;91.67
67868;SHT31;54672;46.096;14.470;2023-09-19T10:14:11;19.31;91.81
67868;SHT31;54672;46.096;14.470;2023-09-19T10:16:45;19.42;91.77
67868;SHT31;54672;46.096;14.470;2023-09-19T10:19:15;19.56;91.02
67868;SHT31;54672;46.096;14.470;2023-09-19T10:21:41;19.67;90.96
67868;SHT31;54672;46.096;14.470;2023-09-19T10:24:08;19.66;90.41
67868;SHT31;54672;46.096;14.470;2023-09-19T10:26:36;19.67;90.09
67868;SHT31;54672;46.096;14.470;2023-09-19T10:29:03;19.92;89.76
67868;SHT31;54672;46.096;14.470;2023-09-19T10:31:32;20.03;89.53
67868;SHT31;54672;46.096;14.470;2023-09-19T10:34:03;20.09;88.11
67868;SHT31;54672;46.096;14.470;2023-09-19T10:36:32;20.21;87.36
67868;SHT31;54672;46.096;14.470;2023-09-19T10:39:02;20.32;86.55
67868;SHT31;54672;46.096;14.470;2023-09-19T10:41:32;20.24;87.67
67868;SHT31;54672;46.096;14.470;2023-09-19T10:44:03;20.25;88.46
67868;SHT31;54672;46.096;14.470;2023-09-19T10:46:31;20.20;87.04
67868;SHT31;54672;46.096;14.470;2023-09-19T10:48:59;20.27;86.75
67868;SHT31;54672;46.096;14.470;2023-09-19T10:51:30;20.51;86.52
67868;SHT31;54672;46.096;14.470;2023-09-19T10:54:01;20.67;84.21
67868;SHT31;54672;46.096;14.470;2023-09-19T10:56:35;21.04;83.74
67868;SHT31;54672;46.096;14.470;2023-09-19T10:59:07;21.06;84.03
67868;SHT31;54672;46.096;14.470;2023-09-19T11:01:57;21.43;83.37
67868;SHT31;54672;46.096;14.470;2023-09-19T11:04:32;21.40;83.68
67868;SHT31;54672;46.096;14.470;2023-09-19T11:07:05;21.13;83.84
67868;SHT31;54672;46.096;14.470;2023-09-19T11:09:50;21.22;82.17
67868;SHT31;54672;46.096;14.470;2023-09-19T11:15:08;20.30;84.06
67868;SHT31;54672;46.096;14.470;2023-09-19T11:17:38;20.28;84.19
67868;SHT31;54672;46.096;14.470;2023-09-19T11:30:48;20.59;84.12
67868;SHT31;54672;46.096;14.470;2023-09-19T11:33:33;21.13;82.26
67868;SHT31;54672;46.096;14.470;2023-09-19T11:36:08;21.57;81.01
67868;SHT31;54672;46.096;14.470;2023-09-19T11:49:19;21.84;79.71
67868;SHT31;54672;46.096;14.470;2023-09-19T11:51:50;22.16;77.66
67868;SHT31;54672;46.096;14.470;2023-09-19T11:54:20;22.43;76.79
67868;SHT31;54672;46.096;14.470;2023-09-19T11:56:51;22.53;76.72
67868;SHT31;54672;46.096;14.470;2023-09-19T11:59:27;22.48;75.43
67868;SHT31;54672;46.096;14.470;2023-09-19T12:01:55;21.74;78.28
67868;SHT31;54672;46.096;14.470;2023-09-19T12:04:39;21.55;79.38
67868;SHT31;54672;46.096;14.470;2023-09-19T12:07:07;21.94;78.56
67868;SHT31;54672;46.096;14.470;2023-09-19T12:09:38;21.95;78.53
67868;SHT31;54672;46.096;14.470;2023-09-19T12:12:04;22.00;78.05
67868;SHT31;54672;46.096;14.470;2023-09-19T12:14:30;21.43;80.11
67868;SHT31;54672;46.096;14.470;2023-09-19T12:16:57;21.85;78.03
67868;SHT31;54672;46.096;14.470;2023-09-19T12:19:23;22.11;75.41
67868;SHT31;54672;46.096;14.470;2023-09-19T12:22:00;22.21;76.82
67868;SHT31;54672;46.096;14.470;2023-09-19T12:24:30;22.46;75.68
67868;SHT31;54672;46.096;14.470;2023-09-19T12:27:06;22.52;76.22
67868;SHT31;54672;46.096;14.470;2023-09-19T12:29:45;22.77;75.30
67868;SHT31;54672;46.096;14.470;2023-09-19T12:32:10;22.89;74.48
67868;SHT31;54672;46.096;14.470;2023-09-19T12:34:36;22.62;75.14
67868;SHT31;54672;46.096;14.470;2023-09-19T12:37:10;22.77;76.34
67868;SHT31;54672;46.096;14.470;2023-09-19T12:39:52;23.04;74.81
67868;SHT31;54672;46.096;14.470;2023-09-19T12:42:26;22.94;73.45
67868;SHT31;54672;46.096;14.470;2023-09-19T12:44:58;22.80;75.45
67868;SHT31;54672;46.096;14.470;2023-09-19T12:47:27;22.69;75.18
67868;SHT31;54672;46.096;14.470;2023-09-19T12:50:14;22.76;75.72
67868;SHT31;54672;46.096;14.470;2023-09-19T12:52:49;22.70;75.00
67868;SHT31;54672;46.096;14.470;2023-09-19T12:55:26;22.63;75.48
67868;SHT31;54672;46.096;14.470;2023-09-19T12:58:13;23.11;74.25
67868;SHT31;54672;46.096;14.470;2023-09-19T13:00:44;23.14;73.55
67868;SHT31;54672;46.096;14.470;2023-09-19T13:03:26;23.10;72.08
67868;SHT31;54672;46.096;14.470;2023-09-19T13:05:58;23.14;70.43
67868;SHT31;54672;46.096;14.470;2023-09-19T13:08:27;23.00;70.89
67868;SHT31;54672;46.096;14.470;2023-09-19T13:11:10;22.66;70.99
67868;SHT31;54672;46.096;14.470;2023-09-19T13:16:04;22.38;72.74
67868;SHT31;54672;46.096;14.470;2023-09-19T13:18:44;22.53;73.32
67868;SHT31;54672;46.096;14.470;2023-09-19T13:21:12;22.60;73.26
67868;SHT31;54672;46.096;14.470;2023-09-19T13:23:50;22.56;73.40
67868;SHT31;54672;46.096;14.470;2023-09-19T13:26:15;22.59;73.51
67868;SHT31;54672;46.096;14.470;2023-09-19T13:28:40;22.43;73.84
67868;SHT31;54672;46.096;14.470;2023-09-19T13:31:06;22.46;74.68
67868;SHT31;54672;46.096;14.470;2023-09-19T13:33:33;22.53;74.76
67868;SHT31;54672;46.096;14.470;2023-09-19T13:35:59;22.59;74.71
67868;SHT31;54672;46.096;14.470;2023-09-19T13:38:24;22.56;73.18
67868;SHT31;54672;46.096;14.470;2023-09-19T13:40:50;22.63;73.62
67868;SHT31;54672;46.096;14.470;2023-09-19T13:43:17;22.69;72.41
67868;SHT31;54672;46.096;14.470;2023-09-19T13:45:43;22.53;72.65
67868;SHT31;54672;46.096;14.470;2023-09-19T13:48:08;22.64;72.99
67868;SHT31;54672;46.096;14.470;2023-09-19T13:50:37;22.74;72.86
67868;SHT31;54672;46.096;14.470;2023-09-19T13:53:07;22.76;72.53
67868;SHT31;54672;46.096;14.470;2023-09-19T13:55:33;22.70;72.50
67868;SHT31;54672;46.096;14.470;2023-09-19T13:57:58;22.64;73.13
67868;SHT31;54672;46.096;14.470;2023-09-19T14:00:24;22.55;73.63
67868;SHT31;54672;46.096;14.470;2023-09-19T14:02:49;22.45;72.62
67868;SHT31;54672;46.096;14.470;2023-09-19T14:05:16;22.45;72.89
67868;SHT31;54672;46.096;14.470;2023-09-19T14:07:45;22.45;73.17
67868;SHT31;54672;46.096;14.470;2023-09-19T14:10:11;22.49;73.53
67868;SHT31;54672;46.096;14.470;2023-09-19T14:12:37;22.67;72.74
67868;SHT31;54672;46.096;14.470;2023-09-19T14:15:06;22.79;72.81
67868;SHT31;54672;46.096;14.470;2023-09-19T14:17:32;22.94;72.78
67868;SHT31;54672;46.096;14.470;2023-09-19T14:19:58;22.94;72.02
67868;SHT31;54672;46.096;14.470;2023-09-19T14:22:23;22.87;72.57
67868;SHT31;54672;46.096;14.470;2023-09-19T14:24:49;22.96;72.85
67868;SHT31;54672;46.096;14.470;2023-09-19T14:27:14;22.96;72.87
67868;SHT31;54672;46.096;14.470;2023-09-19T14:29:40;22.91;73.40
67868;SHT31;54672;46.096;14.470;2023-09-19T14:32:06;22.93;73.16
67868;SHT31;54672;46.096;14.470;2023-09-19T14:34:32;22.69;73.68
67868;SHT31;54672;46.096;14.470;2023-09-19T14:36:58;22.71;73.81
67868;SHT31;54672;46.096;14.470;2023-09-19T14:39:23;22.67;74.53
67868;SHT31;54672;46.096;14.470;2023-09-19T14:41:50;22.66;75.12
67868;SHT31;54672;46.096;14.470;2023-09-19T14:44:15;22.67;74.58
67868;SHT31;54672;46.096;14.470;2023-09-19T14:46:41;22.64;75.76
67868;SHT31;54672;46.096;14.470;2023-09-19T14:49:08;22.71;75.37
67868;SHT31;54672;46.096;14.470;2023-09-19T14:51:35;22.80;74.41
67868;SHT31;54672;46.096;14.470;2023-09-19T14:54:00;22.77;74.48
67868;SHT31;54672;46.096;14.470;2023-09-19T14:56:27;22.73;75.03
67868;SHT31;54672;46.096;14.470;2023-09-19T14:58:55;22.77;74.89
67868;SHT31;54672;46.096;14.470;2023-09-19T15:01:20;22.84;74.44
67868;SHT31;54672;46.096;14.470;2023-09-19T15:03:47;22.76;75.00
67868;SHT31;54672;46.096;14.470;2023-09-19T15:06:15;22.77;75.62
67868;SHT31;54672;46.096;14.470;2023-09-19T15:08:44;22.74;75.70
67868;SHT31;54672;46.096;14.470;2023-09-19T15:11:19;22.70;75.34
67868;SHT31;54672;46.096;14.470;2023-09-19T15:13:50;22.67;75.23
67868;SHT31;54672;46.096;14.470;2023-09-19T15:16:16;22.67;75.67
67868;SHT31;54672;46.096;14.470;2023-09-19T15:18:44;22.66;75.77
67868;SHT31;54672;46.096;14.470;2023-09-19T15:21:12;22.53;76.04
67868;SHT31;54672;46.096;14.470;2023-09-19T15:23:40;22.36;76.20
67868;SHT31;54672;46.096;14.470;2023-09-19T15:26:11;22.45;75.96
67868;SHT31;54672;46.096;14.470;2023-09-19T15:28:37;22.39;75.98
67868;SHT31;54672;46.096;14.470;2023-09-19T15:31:11;22.36;76.35
67868;SHT31;54672;46.096;14.470;2023-09-19T15:33:37;22.02;77.50
67868;SHT31;54672;46.096;14.470;2023-09-19T15:36:07;22.06;77.90
67868;SHT31;54672;46.096;14.470;2023-09-19T15:41:22;22.25;78.33
67868;SHT31;54672;46.096;14.470;2023-09-19T15:43:47;22.19;78.28
67868;SHT31;54672;46.096;14.470;2023-09-19T15:46:12;22.11;78.09
67868;SHT31;54672;46.096;14.470;2023-09-19T15:48:40;22.04;80.05
67868;SHT31;54672;46.096;14.470;2023-09-19T15:51:06;21.92;80.03
67868;SHT31;54672;46.096;14.470;2023-09-19T15:53:42;21.94;79.61
67868;SHT31;54672;46.096;14.470;2023-09-19T15:56:08;21.91;81.17
67868;SHT31;54672;46.096;14.470;2023-09-19T15:58:35;21.70;81.66
67868;SHT31;54672;46.096;14.470;2023-09-19T16:01:08;21.61;82.12
67868;SHT31;54672;46.096;14.470;2023-09-19T16:03:39;21.51;80.71
67868;SHT31;54672;46.096;14.470;2023-09-19T16:06:12;21.50;83.32
67868;SHT31;54672;46.096;14.470;2023-09-19T16:08:43;21.40;83.98
67868;SHT31;54672;46.096;14.470;2023-09-19T16:11:09;21.24;84.73
67868;SHT31;54672;46.096;14.470;2023-09-19T16:13:36;21.06;83.28